Terminal Aerodrome Forecast
Issued by NWS

Home | Current Version | Previous Version | Text Only | Print | Product List | Glossary On
Versions: 1 2 3 4 5 6 7 8 9 10 11 12 13
000
FTUS45 KREV 171300 AAA
TAFTRK
TAF AMD
KTRK 171337Z 1714/1812 00000KT 1/4SM FG VV001
     FM171500 VRB03KT P6SM FEW180
     FM171800 21009KT P6SM SCT180
     FM172000 23012G22KT P6SM FEW140 SCT180
     FM180300 21007KT P6SM SCT060 BKN140=

USA.gov is the U.S. government's official web portal to all federal, state and local government web resources and services.